Time;durP1;ratioP1;P1;durP2;ratioP2;P2;SDS_P1;SDS_P2;PMS_P1;PMS_P2;Temp;Humidity;BMP_temperature;BMP_pressure;BME280_temperature;BME280_humidity;BME280_pressure;Samples;Min_cycle;Max_cycle;Signal;HPM_P1;HPM_P2
2021/05/20 00:02:25;;;;;;;43.37;10.40;;;;;;;;;;5071150;28;20052;-72
2021/05/20 00:04:50;;;;;;;46.90;10.90;;;;;;;;;;5071064;28;20040;-72
2021/05/20 00:07:15;;;;;;;45.10;10.77;;;;;;;;;;5070782;28;20372;-72
2021/05/20 00:09:41;;;;;;;40.93;10.43;;;;;;;;;;5071327;28;20119;-72
2021/05/20 00:12:07;;;;;;;48.87;11.53;;;;;;;;;;5071335;28;20520;-72
2021/05/20 00:14:32;;;;;;;53.33;11.17;;;;;;;;;;5070532;28;20031;-72
2021/05/20 00:16:57;;;;;;;47.50;11.47;;;;;;;;;;5067731;28;20028;-72
2021/05/20 00:19:23;;;;;;;42.33;10.77;;;;;;;;;;5070531;28;20434;-72
2021/05/20 00:21:48;;;;;;;53.90;11.70;;;;;;;;;;5070792;28;20043;-72
2021/05/20 00:24:13;;;;;;;44.77;10.83;;;;;;;;;;5070562;28;20031;-72
2021/05/20 00:26:39;;;;;;;41.80;10.70;;;;;;;;;;5067010;28;20059;-72
2021/05/20 00:29:04;;;;;;;44.37;10.53;;;;;;;;;;5071041;28;20033;-72
2021/05/20 00:31:29;;;;;;;41.37;10.70;;;;;;;;;;5071978;28;20392;-72
2021/05/20 00:33:54;;;;;;;50.13;11.73;;;;;;;;;;5063192;28;20025;-72
2021/05/20 00:36:20;;;;;;;51.97;11.50;;;;;;;;;;5074659;28;20159;-72
2021/05/20 00:38:45;;;;;;;53.00;11.33;;;;;;;;;;5064426;28;20068;-72
2021/05/20 00:41:10;;;;;;;52.23;12.57;;;;;;;;;;5071358;28;20036;-72
2021/05/20 00:43:35;;;;;;;51.53;11.40;;;;;;;;;;5074718;28;20059;-72
2021/05/20 00:46:02;;;;;;;55.77;12.17;;;;;;;;;;5074278;28;20036;-72
2021/05/20 00:48:27;;;;;;;48.87;11.33;;;;;;;;;;5074807;28;20035;-72
2021/05/20 00:50:52;;;;;;;51.03;11.97;;;;;;;;;;5073204;28;20377;-72
2021/05/20 00:53:17;;;;;;;47.80;12.07;;;;;;;;;;5073999;28;20126;-72
2021/05/20 00:55:43;;;;;;;43.40;10.53;;;;;;;;;;5074697;28;20036;-72
2021/05/20 00:58:09;;;;;;;45.63;10.23;;;;;;;;;;5074596;28;20036;-72
2021/05/20 01:00:35;;;;;;;40.03;10.03;;;;;;;;;;5073485;28;20513;-72
2021/05/20 01:03:00;;;;;;;34.07;9.13;;;;;;;;;;5072746;28;20061;-72
2021/05/20 01:05:26;;;;;;;40.97;9.97;;;;;;;;;;5072833;28;20063;-72
2021/05/20 01:07:52;;;;;;;42.57;9.20;;;;;;;;;;5074129;28;20021;-72
2021/05/20 01:10:18;;;;;;;38.70;9.03;;;;;;;;;;5074018;28;20024;-72
2021/05/20 01:12:43;;;;;;;37.60;9.63;;;;;;;;;;5074568;28;20028;-72
2021/05/20 01:15:19;;;;;;;41.50;9.77;;;;;;;;;;5073738;28;20032;-72
2021/05/20 01:17:48;;;;;;;45.50;11.40;;;;;;;;;;5073937;28;20112;-72
2021/05/20 01:20:18;;;;;;;48.70;10.53;;;;;;;;;;5073781;28;20032;-72
2021/05/20 01:22:43;;;;;;;49.93;11.63;;;;;;;;;;5073644;28;20062;-72
2021/05/20 01:25:08;;;;;;;42.83;10.83;;;;;;;;;;5073526;28;20032;-72
2021/05/20 01:27:34;;;;;;;55.67;12.27;;;;;;;;;;5072371;28;20797;-72
2021/05/20 01:29:59;;;;;;;55.17;11.77;;;;;;;;;;5061813;28;20483;-72
2021/05/20 01:32:24;;;;;;;49.50;10.63;;;;;;;;;;5073210;28;20064;-72
2021/05/20 01:34:56;;;;;;;47.77;11.43;;;;;;;;;;5074168;28;20025;-72
2021/05/20 01:37:22;;;;;;;49.65;12.90;;;;;;;;;;5068786;28;20028;-72
2021/05/20 01:39:49;;;;;;;49.70;11.90;;;;;;;;;;5073493;28;20484;-72
2021/05/20 01:42:14;;;;;;;48.43;11.57;;;;;;;;;;5070935;28;20580;-72
2021/05/20 01:44:39;;;;;;;54.40;12.17;;;;;;;;;;5072153;28;20103;-72
2021/05/20 01:47:05;;;;;;;58.03;13.20;;;;;;;;;;5071883;28;20029;-72
2021/05/20 01:49:30;;;;;;;61.87;13.27;;;;;;;;;;5072736;28;20067;-72
2021/05/20 01:51:55;;;;;;;56.57;12.90;;;;;;;;;;5072431;28;20070;-72
2021/05/20 01:54:20;;;;;;;52.00;13.60;;;;;;;;;;5073260;28;20021;-72
2021/05/20 01:56:46;;;;;;;62.50;12.77;;;;;;;;;;5072646;28;20056;-72
2021/05/20 01:59:11;;;;;;;51.80;12.87;;;;;;;;;;5072426;28;20016;-72
2021/05/20 02:01:37;;;;;;;47.33;10.97;;;;;;;;;;5068718;28;20111;-72
2021/05/20 02:04:02;;;;;;;45.47;10.77;;;;;;;;;;5073306;28;20028;-69
2021/05/20 02:06:27;;;;;;;50.97;12.80;;;;;;;;;;5072614;28;20101;-69
2021/05/20 02:08:53;;;;;;;55.43;13.27;;;;;;;;;;5072474;28;20476;-69
2021/05/20 02:11:18;;;;;;;55.07;12.20;;;;;;;;;;5072484;28;20078;-69
2021/05/20 02:13:43;;;;;;;48.90;12.87;;;;;;;;;;5072982;28;20028;-69
2021/05/20 02:16:09;;;;;;;66.63;14.40;;;;;;;;;;5072265;28;20020;-69
2021/05/20 02:18:34;;;;;;;53.27;12.47;;;;;;;;;;5072953;28;20072;-68
2021/05/20 02:21:00;;;;;;;57.23;12.43;;;;;;;;;;5072134;28;20052;-69
2021/05/20 02:23:25;;;;;;;55.57;12.27;;;;;;;;;;5069042;28;20028;-69
2021/05/20 02:25:50;;;;;;;62.30;12.83;;;;;;;;;;5067157;28;20024;-69
2021/05/20 02:28:16;;;;;;;68.37;13.50;;;;;;;;;;5070301;28;20577;-71
2021/05/20 02:30:41;;;;;;;50.87;13.30;;;;;;;;;;5072139;28;20039;-71
2021/05/20 02:33:06;;;;;;;66.53;13.80;;;;;;;;;;5072519;28;20123;-71
2021/05/20 02:35:32;;;;;;;76.07;15.33;;;;;;;;;;5072252;28;20024;-71
2021/05/20 02:37:57;;;;;;;94.10;15.80;;;;;;;;;;5072267;28;20042;-71
2021/05/20 02:40:22;;;;;;;78.07;14.40;;;;;;;;;;5069419;28;20036;-71
2021/05/20 02:42:48;;;;;;;94.37;15.63;;;;;;;;;;5071882;28;20024;-71
2021/05/20 02:45:15;;;;;;;80.07;14.07;;;;;;;;;;5071742;28;20068;-71
2021/05/20 02:47:41;;;;;;;110.73;13.57;;;;;;;;;;5071921;28;20021;-71
2021/05/20 02:50:07;;;;;;;154.07;16.00;;;;;;;;;;5071844;28;20247;-71
2021/05/20 02:52:32;;;;;;;103.77;13.80;;;;;;;;;;5068921;28;20361;-71
2021/05/20 02:54:58;;;;;;;74.33;13.57;;;;;;;;;;5070994;28;20040;-71
2021/05/20 02:57:23;;;;;;;73.73;13.10;;;;;;;;;;5071820;28;20023;-71
2021/05/20 02:59:49;;;;;;;51.07;12.40;;;;;;;;;;5067548;28;20017;-71
2021/05/20 03:02:14;;;;;;;67.03;13.40;;;;;;;;;;5063785;28;20068;-71
2021/05/20 03:04:39;;;;;;;71.13;13.13;;;;;;;;;;5071480;28;20020;-71
2021/05/20 03:07:05;;;;;;;60.90;13.17;;;;;;;;;;5064741;28;20027;-71
2021/05/20 03:09:31;;;;;;;56.03;12.70;;;;;;;;;;5072437;28;20016;-71
2021/05/20 03:11:57;;;;;;;50.17;12.17;;;;;;;;;;5071445;28;20342;-71
2021/05/20 03:14:22;;;;;;;56.17;11.87;;;;;;;;;;5071784;28;20020;-71
2021/05/20 03:16:48;;;;;;;57.97;12.97;;;;;;;;;;5071833;28;20278;-72
2021/05/20 03:19:13;;;;;;;62.47;13.27;;;;;;;;;;5071612;28;20431;-71
2021/05/20 03:21:39;;;;;;;80.43;15.00;;;;;;;;;;5071280;28;20021;-71
2021/05/20 03:24:04;;;;;;;55.23;12.17;;;;;;;;;;5071205;28;20024;-71
2021/05/20 03:26:29;;;;;;;84.53;14.20;;;;;;;;;;5069264;28;20025;-71
2021/05/20 03:28:55;;;;;;;83.87;14.00;;;;;;;;;;5071389;28;20074;-71
2021/05/20 03:31:21;;;;;;;99.30;15.67;;;;;;;;;;5070962;28;20087;-71
2021/05/20 03:33:46;;;;;;;77.60;14.83;;;;;;;;;;5071410;28;20032;-71
2021/05/20 03:36:11;;;;;;;70.80;13.43;;;;;;;;;;5068545;28;20029;-71
2021/05/20 03:38:36;;;;;;;64.23;13.10;;;;;;;;;;5066691;28;20104;-71
2021/05/20 03:41:02;;;;;;;60.73;13.23;;;;;;;;;;5065875;28;20044;-71
2021/05/20 03:43:31;;;;;;;77.57;15.13;;;;;;;;;;5071855;28;20025;-71
2021/05/20 03:45:56;;;;;;;75.37;14.63;;;;;;;;;;5062698;28;20114;-71
2021/05/20 03:48:22;;;;;;;81.23;15.27;;;;;;;;;;5070046;28;20769;-71
2021/05/20 03:50:47;;;;;;;92.83;15.03;;;;;;;;;;5070318;28;20024;-71
2021/05/20 03:53:12;;;;;;;84.10;14.70;;;;;;;;;;5070868;28;20078;-71
2021/05/20 03:55:37;;;;;;;87.53;14.47;;;;;;;;;;5070862;28;20025;-71
2021/05/20 03:58:03;;;;;;;98.63;15.93;;;;;;;;;;5067608;28;20028;-71
2021/05/20 04:00:28;;;;;;;81.30;14.87;;;;;;;;;;5071006;28;20032;-71
2021/05/20 04:02:53;;;;;;;91.57;14.90;;;;;;;;;;5070940;28;20123;-71
2021/05/20 04:05:18;;;;;;;112.20;15.70;;;;;;;;;;5070994;28;20522;-71
2021/05/20 04:07:43;;;;;;;106.40;15.33;;;;;;;;;;5073922;28;20500;-71
2021/05/20 04:10:09;;;;;;;65.03;13.37;;;;;;;;;;5075220;28;20043;-71
2021/05/20 04:12:35;;;;;;;78.53;13.87;;;;;;;;;;5074934;28;20036;-71
2021/05/20 04:15:00;;;;;;;64.70;14.07;;;;;;;;;;5075440;28;20063;-71
2021/05/20 04:17:25;;;;;;;88.97;14.03;;;;;;;;;;5074767;28;20020;-71
2021/05/20 04:19:50;;;;;;;71.93;13.70;;;;;;;;;;5074827;28;20074;-71
2021/05/20 04:22:16;;;;;;;64.57;14.33;;;;;;;;;;5070128;28;20020;-71
2021/05/20 04:24:41;;;;;;;65.50;14.13;;;;;;;;;;5074249;28;20389;-71
2021/05/20 04:27:06;;;;;;;82.67;14.77;;;;;;;;;;5071477;28;20017;-71
2021/05/20 04:29:31;;;;;;;88.77;14.43;;;;;;;;;;5070119;28;20111;-71
2021/05/20 04:31:57;;;;;;;83.83;14.00;;;;;;;;;;5072314;28;20117;-71
2021/05/20 04:34:22;;;;;;;69.93;13.33;;;;;;;;;;5075090;28;20024;-71
2021/05/20 04:36:47;;;;;;;75.40;13.20;;;;;;;;;;5072075;28;20525;-71
2021/05/20 04:39:12;;;;;;;67.93;13.77;;;;;;;;;;5073588;28;20387;-71
2021/05/20 04:41:38;;;;;;;61.20;13.13;;;;;;;;;;5073805;28;20103;-71
2021/05/20 04:44:03;;;;;;;54.37;12.83;;;;;;;;;;5074670;28;20078;-72
2021/05/20 04:46:29;;;;;;;51.37;13.57;;;;;;;;;;5073350;28;20035;-71
2021/05/20 04:48:54;;;;;;;54.53;12.60;;;;;;;;;;5074698;28;20021;-71
2021/05/20 04:51:19;;;;;;;56.87;13.10;;;;;;;;;;5070627;28;20074;-71
2021/05/20 04:53:45;;;;;;;41.07;11.03;;;;;;;;;;5074386;28;20536;-71
2021/05/20 04:56:11;;;;;;;36.97;11.40;;;;;;;;;;5074149;28;20025;-71
2021/05/20 04:58:36;;;;;;;35.70;11.23;;;;;;;;;;5074020;28;20104;-71
2021/05/20 05:01:01;;;;;;;43.80;11.93;;;;;;;;;;5072742;28;20025;-71
2021/05/20 05:03:27;;;;;;;40.00;11.97;;;;;;;;;;5073819;28;20436;-71
2021/05/20 05:05:53;;;;;;;35.73;11.47;;;;;;;;;;5073689;28;20380;-71
2021/05/20 05:08:19;;;;;;;39.33;12.37;;;;;;;;;;5074243;28;20373;-71
2021/05/20 05:10:44;;;;;;;56.20;12.27;;;;;;;;;;5073975;28;20029;-71
2021/05/20 05:13:09;;;;;;;34.47;10.33;;;;;;;;;;5075802;28;20024;-70
2021/05/20 05:15:34;;;;;;;40.00;10.93;;;;;;;;;;5072941;28;20028;-70
2021/05/20 05:18:00;;;;;;;37.20;10.57;;;;;;;;;;5060797;28;20025;-70
2021/05/20 05:20:25;;;;;;;27.83;9.40;;;;;;;;;;5070682;28;20438;-70
2021/05/20 05:22:50;;;;;;;24.00;10.03;;;;;;;;;;5073735;28;20016;-70
2021/05/20 05:25:16;;;;;;;27.97;10.10;;;;;;;;;;5072317;28;20044;-70
2021/05/20 05:27:41;;;;;;;29.80;10.33;;;;;;;;;;5073667;28;20024;-70
2021/05/20 05:30:06;;;;;;;20.53;8.83;;;;;;;;;;5072542;28;20461;-70
2021/05/20 05:32:32;;;;;;;19.30;8.47;;;;;;;;;;5073386;28;20408;-70
2021/05/20 05:34:57;;;;;;;22.13;10.30;;;;;;;;;;5072755;28;20017;-70
2021/05/20 05:37:22;;;;;;;19.00;9.03;;;;;;;;;;5072901;28;20025;-70
2021/05/20 05:39:48;;;;;;;20.50;8.70;;;;;;;;;;5073201;28;20028;-70
2021/05/20 05:42:13;;;;;;;17.80;8.50;;;;;;;;;;5070541;28;20036;-70
2021/05/20 05:44:38;;;;;;;17.00;8.27;;;;;;;;;;5073468;28;20036;-70
2021/05/20 05:47:03;;;;;;;17.80;7.37;;;;;;;;;;5058448;28;20036;-70
2021/05/20 05:49:30;;;;;;;17.97;8.37;;;;;;;;;;5073821;28;20062;-70
2021/05/20 05:52:04;;;;;;;14.93;7.47;;;;;;;;;;5072067;28;20099;-70
2021/05/20 05:54:29;;;;;;;15.73;7.40;;;;;;;;;;5073079;28;20075;-70
2021/05/20 05:56:55;;;;;;;18.23;8.67;;;;;;;;;;5072999;28;20384;-70
2021/05/20 05:59:20;;;;;;;15.03;7.57;;;;;;;;;;5073612;28;20024;-69
2021/05/20 06:01:46;;;;;;;15.17;7.80;;;;;;;;;;5064711;28;20453;-70
2021/05/20 06:04:11;;;;;;;16.73;7.97;;;;;;;;;;5073357;28;20396;-69
2021/05/20 06:06:36;;;;;;;15.90;8.33;;;;;;;;;;5073015;28;20464;-69
2021/05/20 06:09:05;;;;;;;15.87;7.37;;;;;;;;;;5072818;28;20040;-69
2021/05/20 06:11:31;;;;;;;15.80;7.33;;;;;;;;;;5071565;28;20028;-69
2021/05/20 06:13:56;;;;;;;13.63;7.17;;;;;;;;;;5072815;28;20035;-69
2021/05/20 06:16:21;;;;;;;14.50;7.17;;;;;;;;;;5073224;28;20070;-69
2021/05/20 06:18:47;;;;;;;12.30;6.10;;;;;;;;;;5073175;28;20388;-69
2021/05/20 06:21:12;;;;;;;17.47;7.17;;;;;;;;;;5065906;28;20036;-69
2021/05/20 06:23:37;;;;;;;12.27;6.67;;;;;;;;;;5072189;28;20028;-70
2021/05/20 06:26:02;;;;;;;13.00;6.77;;;;;;;;;;5069646;28;20469;-70
2021/05/20 06:28:28;;;;;;;13.60;7.43;;;;;;;;;;5067076;28;20117;-70
2021/05/20 06:30:53;;;;;;;15.50;7.70;;;;;;;;;;5071830;28;20032;-70
2021/05/20 06:33:19;;;;;;;13.13;6.50;;;;;;;;;;5072804;28;20457;-70
2021/05/20 06:35:45;;;;;;;14.87;7.03;;;;;;;;;;5070563;28;20036;-70
2021/05/20 06:38:10;;;;;;;13.80;6.87;;;;;;;;;;5073123;28;20040;-70
2021/05/20 06:40:35;;;;;;;14.13;7.37;;;;;;;;;;5071612;28;20034;-70
2021/05/20 06:43:01;;;;;;;14.27;7.70;;;;;;;;;;5072839;28;20029;-70
2021/05/20 06:45:26;;;;;;;13.97;7.60;;;;;;;;;;5072179;28;20031;-70
2021/05/20 06:47:55;;;;;;;13.77;6.70;;;;;;;;;;5072863;28;20028;-70
2021/05/20 06:50:20;;;;;;;11.10;6.23;;;;;;;;;;5071545;28;20021;-70
2021/05/20 06:52:46;;;;;;;12.13;6.40;;;;;;;;;;5071465;28;20028;-70
2021/05/20 06:55:11;;;;;;;12.37;6.20;;;;;;;;;;5067658;28;20100;-70
2021/05/20 07:00:20;;;;;;;14.57;6.93;;;;;;;;;;5067359;28;20059;-70
2021/05/20 07:02:46;;;;;;;14.23;7.90;;;;;;;;;;5071281;28;20488;-70
2021/05/20 07:05:12;;;;;;;11.60;6.60;;;;;;;;;;5070507;28;20059;-70
2021/05/20 07:07:38;;;;;;;10.47;6.13;;;;;;;;;;5071146;28;20020;-70
2021/05/20 07:10:04;;;;;;;11.13;6.40;;;;;;;;;;5072155;28;20024;-70
2021/05/20 07:12:29;;;;;;;11.93;6.10;;;;;;;;;;5072144;28;20434;-70
2021/05/20 07:14:57;;;;;;;12.53;6.97;;;;;;;;;;5072399;28;20032;-70
2021/05/20 07:17:22;;;;;;;13.37;7.30;;;;;;;;;;5070888;28;20494;-70
2021/05/20 07:19:48;;;;;;;13.33;7.37;;;;;;;;;;5072091;28;20029;-70
2021/05/20 07:22:13;;;;;;;13.40;6.63;;;;;;;;;;5071993;28;20032;-70
2021/05/20 07:24:38;;;;;;;13.57;7.10;;;;;;;;;;5072377;28;20388;-70
2021/05/20 07:27:04;;;;;;;10.77;6.30;;;;;;;;;;5071690;28;20029;-70
2021/05/20 07:29:29;;;;;;;11.97;6.60;;;;;;;;;;5072268;28;20349;-70
2021/05/20 07:31:55;;;;;;;11.70;6.03;;;;;;;;;;5071598;28;20023;-70
2021/05/20 07:34:20;;;;;;;13.73;6.30;;;;;;;;;;5072058;28;20013;-70
2021/05/20 07:36:45;;;;;;;10.65;6.85;;;;;;;;;;5068116;28;20478;-70
2021/05/20 07:39:11;;;;;;;11.55;6.63;;;;;;;;;;5072126;28;20052;-70
2021/05/20 07:41:36;;;;;;;11.27;6.28;;;;;;;;;;5071797;28;20035;-70
2021/05/20 07:44:02;;;;;;;11.67;6.73;;;;;;;;;;5072095;28;20040;-70
2021/05/20 07:46:27;;;;;;;13.27;6.80;;;;;;;;;;5071355;28;20388;-70
2021/05/20 07:48:52;;;;;;;10.75;6.55;;;;;;;;;;5071823;28;20012;-70
2021/05/20 07:51:18;;;;;;;13.35;7.32;;;;;;;;;;5060595;28;20052;-70
2021/05/20 07:53:43;;;;;;;13.45;7.15;;;;;;;;;;5069360;28;20123;-71
2021/05/20 07:56:08;;;;;;;12.73;7.00;;;;;;;;;;5071379;28;20036;-70
2021/05/20 07:58:34;;;;;;;12.43;6.30;;;;;;;;;;5070047;28;20086;-70
2021/05/20 08:01:03;;;;;;;13.80;8.00;;;;;;;;;;5071375;28;20029;-70
2021/05/20 08:03:34;;;;;;;13.50;7.00;;;;;;;;;;5071350;28;20037;-70
2021/05/20 08:11:07;;;;;;;14.00;7.03;;;;;;;;;;5071697;28;20028;-70
2021/05/20 08:13:33;;;;;;;14.63;7.40;;;;;;;;;;5058431;28;20032;-70
2021/05/20 08:15:59;;;;;;;12.07;6.47;;;;;;;;;;5071319;28;20417;-70
2021/05/20 08:18:24;;;;;;;11.87;6.70;;;;;;;;;;5071855;28;20070;-70
2021/05/20 08:20:49;;;;;;;11.17;6.60;;;;;;;;;;5071444;28;20461;-70
2021/05/20 08:23:15;;;;;;;11.43;5.67;;;;;;;;;;5071365;28;20028;-70
2021/05/20 08:25:40;;;;;;;10.02;5.63;;;;;;;;;;5071219;28;20058;-70
2021/05/20 08:28:05;;;;;;;10.18;5.43;;;;;;;;;;5071715;28;20048;-70
2021/05/20 08:30:31;;;;;;;8.38;5.22;;;;;;;;;;5070931;28;20039;-70
2021/05/20 08:32:56;;;;;;;7.47;4.90;;;;;;;;;;5071794;28;20017;-70
2021/05/20 08:35:22;;;;;;;8.75;5.18;;;;;;;;;;5067852;28;20029;-70
2021/05/20 08:37:48;;;;;;;10.80;5.38;;;;;;;;;;5071445;28;20031;-70
2021/05/20 08:40:14;;;;;;;9.15;5.55;;;;;;;;;;5071271;28;20095;-71
2021/05/20 08:42:39;;;;;;;7.18;4.38;;;;;;;;;;5071409;28;20391;-71
2021/05/20 08:45:08;;;;;;;8.82;4.65;;;;;;;;;;5070936;28;20024;-71
2021/05/20 08:47:33;;;;;;;6.78;3.58;;;;;;;;;;5058235;28;20039;-71
2021/05/20 08:49:59;;;;;;;7.88;3.00;;;;;;;;;;5070915;28;20464;-71
2021/05/20 08:52:24;;;;;;;5.75;3.60;;;;;;;;;;5058676;28;20426;-71
2021/05/20 08:54:49;;;;;;;8.65;3.65;;;;;;;;;;5075146;28;20028;-71
2021/05/20 08:57:14;;;;;;;5.90;3.33;;;;;;;;;;5072876;28;20062;-71
2021/05/20 08:59:40;;;;;;;6.45;3.00;;;;;;;;;;5074738;28;20531;-71
2021/05/20 09:02:05;;;;;;;7.78;2.92;;;;;;;;;;5074219;28;20067;-71
2021/05/20 09:04:30;;;;;;;5.43;3.10;;;;;;;;;;5075225;28;20024;-71
2021/05/20 09:07:02;;;;;;;6.35;3.60;;;;;;;;;;5074096;28;20032;-71
2021/05/20 09:09:35;;;;;;;6.00;3.00;;;;;;;;;;5074878;28;20020;-71
2021/05/20 09:12:00;;;;;;;5.72;3.25;;;;;;;;;;5074263;28;20024;-71
2021/05/20 09:14:38;;;;;;;6.00;3.45;;;;;;;;;;5074645;28;20024;-71
2021/05/20 09:17:16;;;;;;;7.00;3.80;;;;;;;;;;5074318;28;20028;-71
2021/05/20 09:19:43;;;;;;;5.63;3.33;;;;;;;;;;5074227;28;20048;-71
2021/05/20 09:22:10;;;;;;;5.18;2.80;;;;;;;;;;5074004;28;20033;-71
2021/05/20 09:24:45;;;;;;;5.68;2.53;;;;;;;;;;5074242;28;20030;-71
2021/05/20 09:27:26;;;;;;;5.45;2.80;;;;;;;;;;5073768;28;20028;-70
2021/05/20 09:30:18;;;;;;;4.85;2.83;;;;;;;;;;5074147;28;20070;-70
2021/05/20 09:32:49;;;;;;;4.38;2.30;;;;;;;;;;5071147;28;20048;-71
2021/05/20 09:35:18;;;;;;;4.70;2.35;;;;;;;;;;5071655;28;20550;-71
2021/05/20 09:37:44;;;;;;;6.00;2.88;;;;;;;;;;5073496;28;20020;-70
2021/05/20 09:40:09;;;;;;;5.65;2.85;;;;;;;;;;5073948;28;20361;-70
2021/05/20 09:42:34;;;;;;;4.90;3.00;;;;;;;;;;5074240;28;20021;-71
2021/05/20 09:45:07;;;;;;;5.40;2.88;;;;;;;;;;5073846;28;20016;-71
2021/05/20 09:47:32;;;;;;;;;;;;;;;;;;5061435;28;20047;-71
2021/05/20 09:50:02;;;;;;;7.04;3.44;;;;;;;;;;5073719;28;19904;-71
2021/05/20 09:52:27;;;;;;;6.17;2.80;;;;;;;;;;5073764;28;20048;-71
2021/05/20 09:54:53;;;;;;;6.25;3.15;;;;;;;;;;5073586;28;20040;-70
2021/05/20 09:57:28;;;;;;;6.00;3.20;;;;;;;;;;5071996;28;20024;-70
2021/05/20 10:00:00;;;;;;;5.78;3.08;;;;;;;;;;5074045;28;20035;-70
2021/05/20 10:02:26;;;;;;;6.20;3.33;;;;;;;;;;5062093;28;20051;-71
2021/05/20 10:04:53;;;;;;;6.80;3.28;;;;;;;;;;5072303;28;20512;-71
2021/05/20 10:07:28;;;;;;;6.45;3.75;;;;;;;;;;5073101;28;20112;-71
2021/05/20 10:09:54;;;;;;;6.10;3.22;;;;;;;;;;5073589;28;20074;-71
2021/05/20 10:12:19;;;;;;;6.47;3.22;;;;;;;;;;5073470;28;20044;-71
2021/05/20 10:14:45;;;;;;;5.83;3.03;;;;;;;;;;5073826;28;20048;-71
2021/05/20 10:17:11;;;;;;;6.83;3.50;;;;;;;;;;5073163;28;20052;-71
2021/05/20 10:19:37;;;;;;;5.30;2.87;;;;;;;;;;5073450;28;20419;-71
2021/05/20 10:22:02;;;;;;;6.40;3.17;;;;;;;;;;5073171;28;20578;-71
2021/05/20 10:24:29;;;;;;;4.27;2.60;;;;;;;;;;5073327;28;20020;-71
2021/05/20 10:26:54;;;;;;;6.57;2.80;;;;;;;;;;5072945;28;20084;-71
2021/05/20 10:29:20;;;;;;;7.03;3.17;;;;;;;;;;5073125;28;20112;-71
2021/05/20 10:31:45;;;;;;;6.80;3.70;;;;;;;;;;5072835;28;20016;-70
2021/05/20 10:34:14;;;;;;;5.03;2.90;;;;;;;;;;5073273;28;20021;-70
2021/05/20 10:36:55;;;;;;;6.13;3.73;;;;;;;;;;5069240;28;20410;-70
2021/05/20 10:39:20;;;;;;;6.80;3.50;;;;;;;;;;5072817;28;20059;-70
2021/05/20 10:41:46;;;;;;;8.47;4.00;;;;;;;;;;5072487;28;20052;-70
2021/05/20 10:44:11;;;;;;;6.57;3.63;;;;;;;;;;5072746;28;20035;-70
2021/05/20 10:46:55;;;;;;;7.43;3.50;;;;;;;;;;5072591;28;20031;-70
2021/05/20 10:49:21;;;;;;;5.90;3.38;;;;;;;;;;5072583;28;20016;-71
2021/05/20 10:51:46;;;;;;;6.95;3.85;;;;;;;;;;5058739;28;20025;-71
2021/05/20 10:54:14;;;;;;;5.65;3.10;;;;;;;;;;5072649;28;20461;-71
2021/05/20 10:56:39;;;;;;;5.28;3.28;;;;;;;;;;5070792;28;20029;-71
2021/05/20 10:59:27;;;;;;;4.65;2.63;;;;;;;;;;5072853;28;20165;-71
2021/05/20 11:01:52;;;;;;;4.05;2.22;;;;;;;;;;5063447;28;20036;-71
2021/05/20 11:04:32;;;;;;;4.65;2.22;;;;;;;;;;5072676;28;20029;-71
2021/05/20 11:06:57;;;;;;;4.03;2.10;;;;;;;;;;5072295;28;20025;-71
2021/05/20 11:09:40;;;;;;;3.58;2.00;;;;;;;;;;5072680;28;20482;-71
2021/05/20 11:12:05;;;;;;;3.65;2.03;;;;;;;;;;5072227;28;20080;-71
2021/05/20 11:14:32;;;;;;;5.18;2.13;;;;;;;;;;5072341;28;20472;-71
2021/05/20 11:16:57;;;;;;;3.13;1.65;;;;;;;;;;5071512;28;20024;-72
2021/05/20 11:19:23;;;;;;;2.92;1.40;;;;;;;;;;5054597;28;20031;-71
2021/05/20 11:22:04;;;;;;;4.93;1.42;;;;;;;;;;5072076;28;20427;-71
2021/05/20 11:24:33;;;;;;;3.20;1.70;;;;;;;;;;5072130;28;20095;-71
2021/05/20 11:27:06;;;;;;;3.78;2.10;;;;;;;;;;5071828;28;20117;-71
2021/05/20 11:29:32;;;;;;;3.17;1.60;;;;;;;;;;5072245;28;20031;-71
2021/05/20 11:32:02;;;;;;;4.78;1.73;;;;;;;;;;5071942;28;20039;-71
2021/05/20 11:35:00;;;;;;;4.07;2.00;;;;;;;;;;5072120;28;20025;-71
2021/05/20 11:37:40;;;;;;;3.30;1.70;;;;;;;;;;5067939;28;20036;-71
2021/05/20 11:40:06;;;;;;;4.10;1.80;;;;;;;;;;5071678;28;20476;-71
2021/05/20 11:42:32;;;;;;;4.10;2.03;;;;;;;;;;5072141;28;20050;-71
2021/05/20 11:45:01;;;;;;;4.53;1.80;;;;;;;;;;5071506;28;20028;-72
2021/05/20 11:47:27;;;;;;;4.18;1.75;;;;;;;;;;5071931;28;20029;-72
2021/05/20 11:49:52;;;;;;;4.22;1.70;;;;;;;;;;5071685;28;20056;-72
2021/05/20 11:52:19;;;;;;;3.38;1.98;;;;;;;;;;5058274;28;20150;-72
2021/05/20 11:54:45;;;;;;;5.10;1.90;;;;;;;;;;5071975;28;20107;-72
2021/05/20 11:57:11;;;;;;;5.22;2.20;;;;;;;;;;5069365;28;20033;-72
2021/05/20 11:59:37;;;;;;;3.80;1.80;;;;;;;;;;5072016;28;20051;-72
2021/05/20 12:02:06;;;;;;;5.15;1.92;;;;;;;;;;5071307;28;20403;-72
2021/05/20 12:04:32;;;;;;;3.60;1.98;;;;;;;;;;5071941;28;20407;-72
2021/05/20 12:06:57;;;;;;;3.67;2.00;;;;;;;;;;5071533;28;20028;-72
2021/05/20 12:09:23;;;;;;;4.97;2.05;;;;;;;;;;5071978;28;20074;-72
2021/05/20 12:11:48;;;;;;;3.80;1.63;;;;;;;;;;5071477;28;20032;-72
2021/05/20 12:14:24;;;;;;;2.92;1.50;;;;;;;;;;5071965;28;20704;-72
2021/05/20 12:16:59;;;;;;;3.50;1.67;;;;;;;;;;5071248;28;20464;-72
2021/05/20 12:19:25;;;;;;;3.38;1.67;;;;;;;;;;5071331;28;20039;-72
2021/05/20 12:21:59;;;;;;;3.30;1.40;;;;;;;;;;5071229;28;20032;-72
2021/05/20 12:24:28;;;;;;;2.38;1.38;;;;;;;;;;5071563;28;20028;-73
2021/05/20 12:26:54;;;;;;;4.70;1.70;;;;;;;;;;5071402;28;20456;-73
2021/05/20 12:29:19;;;;;;;3.65;1.75;;;;;;;;;;5075567;28;20031;-73
2021/05/20 12:31:44;;;;;;;3.13;1.42;;;;;;;;;;5074823;28;20040;-73
2021/05/20 12:34:17;;;;;;;3.25;1.25;;;;;;;;;;5075321;28;20099;-73
2021/05/20 12:36:43;;;;;;;3.65;1.10;;;;;;;;;;5071263;28;20036;-73
2021/05/20 12:39:12;;;;;;;3.20;1.25;;;;;;;;;;5075043;28;20472;-73
2021/05/20 12:41:37;;;;;;;3.00;1.40;;;;;;;;;;5075087;28;20082;-73
2021/05/20 12:44:12;;;;;;;2.70;1.48;;;;;;;;;;5075367;28;20028;-72
2021/05/20 12:46:38;;;;;;;5.22;1.40;;;;;;;;;;5074888;28;20491;-72
2021/05/20 12:49:03;;;;;;;2.70;1.25;;;;;;;;;;5074897;28;20094;-73
2021/05/20 12:51:28;;;;;;;3.33;1.30;;;;;;;;;;5062343;28;20056;-73
2021/05/20 12:54:06;;;;;;;2.22;1.10;;;;;;;;;;5073628;28;20024;-72
2021/05/20 12:56:35;;;;;;;3.42;1.10;;;;;;;;;;5072667;28;20032;-72
2021/05/20 12:59:03;;;;;;;3.65;1.20;;;;;;;;;;5062277;28;20377;-72
2021/05/20 13:01:37;;;;;;;4.72;1.45;;;;;;;;;;5074068;28;20028;-72
2021/05/20 13:04:09;;;;;;;2.50;1.38;;;;;;;;;;5074618;28;20106;-72
2021/05/20 13:06:35;;;;;;;4.63;1.40;;;;;;;;;;5073710;28;20027;-73
2021/05/20 13:09:10;;;;;;;3.85;1.33;;;;;;;;;;5074903;28;20028;-73
2021/05/20 13:11:39;;;;;;;2.97;1.40;;;;;;;;;;5074156;28;20017;-73
2021/05/20 13:14:22;;;;;;;2.45;1.40;;;;;;;;;;5074479;28;20024;-73
2021/05/20 13:16:56;;;;;;;3.40;1.60;;;;;;;;;;5074409;28;20472;-72
2021/05/20 13:22:38;;;;;;;5.03;1.45;;;;;;;;;;5074046;28;20043;-73
2021/05/20 13:25:07;;;;;;;4.45;1.58;;;;;;;;;;5060650;28;20115;-73
2021/05/20 13:27:33;;;;;;;3.85;1.33;;;;;;;;;;5074340;28;20078;-73
2021/05/20 13:30:06;;;;;;;3.22;1.40;;;;;;;;;;5074071;28;20024;-73
2021/05/20 13:35:04;;;;;;;1.67;1.00;;;;;;;;;;5073278;28;20119;-74
2021/05/20 13:37:29;;;;;;;3.10;1.27;;;;;;;;;;5071118;28;20472;-74
2021/05/20 13:39:55;;;;;;;2.63;1.10;;;;;;;;;;5074014;28;20016;-74
2021/05/20 13:42:20;;;;;;;3.60;1.17;;;;;;;;;;5073630;28;20032;-74
2021/05/20 13:47:11;;;;;;;4.63;1.40;;;;;;;;;;5073474;28;20032;-74
2021/05/20 13:49:40;;;;;;;3.10;1.40;;;;;;;;;;5074049;28;20020;-74
2021/05/20 13:52:09;;;;;;;3.45;1.30;;;;;;;;;;5059996;28;20016;-74
2021/05/20 13:54:34;;;;;;;2.72;1.10;;;;;;;;;;5074090;28;20036;-73
2021/05/20 13:57:00;;;;;;;4.15;1.08;;;;;;;;;;5062214;28;20372;-74
2021/05/20 13:59:26;;;;;;;3.70;1.40;;;;;;;;;;5073535;28;20028;-74
2021/05/20 14:01:52;;;;;;;2.95;1.40;;;;;;;;;;5072848;28;20039;-74
2021/05/20 14:04:24;;;;;;;2.85;1.35;;;;;;;;;;5073486;28;20032;-73
2021/05/20 14:06:49;;;;;;;4.32;1.77;;;;;;;;;;5073352;28;20037;-73
2021/05/20 14:09:14;;;;;;;3.72;1.58;;;;;;;;;;5073434;28;20107;-73
2021/05/20 14:11:40;;;;;;;4.88;1.48;;;;;;;;;;5073217;28;20031;-73
2021/05/20 14:14:05;;;;;;;3.97;1.70;;;;;;;;;;5073278;28;20061;-72
2021/05/20 14:16:30;;;;;;;4.65;1.67;;;;;;;;;;5073098;28;20086;-72
2021/05/20 14:18:56;;;;;;;4.05;1.73;;;;;;;;;;5073525;28;20032;-72
2021/05/20 14:21:23;;;;;;;5.03;1.40;;;;;;;;;;5072650;28;20479;-73
2021/05/20 14:23:48;;;;;;;4.45;1.60;;;;;;;;;;5073088;28;20028;-73
2021/05/20 14:26:13;;;;;;;3.45;1.80;;;;;;;;;;5072589;28;20029;-73
2021/05/20 14:28:39;;;;;;;3.42;1.67;;;;;;;;;;5073004;28;20025;-73
2021/05/20 14:31:04;;;;;;;3.40;1.63;;;;;;;;;;5072402;28;20057;-73
2021/05/20 14:33:29;;;;;;;3.85;1.83;;;;;;;;;;5072967;28;20025;-73
2021/05/20 14:35:54;;;;;;;4.55;1.70;;;;;;;;;;5069129;28;20482;-74
2021/05/20 14:38:20;;;;;;;5.47;1.60;;;;;;;;;;5072883;28;20036;-73
2021/05/20 14:40:45;;;;;;;4.00;1.65;;;;;;;;;;5072599;28;20468;-73
2021/05/20 14:43:10;;;;;;;4.03;1.70;;;;;;;;;;5073097;28;20448;-73
2021/05/20 14:45:37;;;;;;;5.22;2.05;;;;;;;;;;5072151;28;20464;-73